createdAt,value
2018-06-14T00:00:09.034Z,70.22
2018-06-14T00:01:16.171Z,70.30
2018-06-14T00:02:23.262Z,70.32
2018-06-14T00:03:30.151Z,70.26
2018-06-14T00:04:37.159Z,70.27
2018-06-14T00:05:44.228Z,70.29
2018-06-14T00:06:51.223Z,70.27
2018-06-14T00:07:58.220Z,70.28
2018-06-14T00:09:05.093Z,70.24
2018-06-14T00:10:12.131Z,70.21
2018-06-14T00:11:19.256Z,70.23
2018-06-14T00:12:26.312Z,70.28
2018-06-14T00:13:33.291Z,70.23
2018-06-14T00:14:40.326Z,70.23
2018-06-14T00:15:47.287Z,70.21
2018-06-14T00:16:54.232Z,70.21
2018-06-14T00:18:01.304Z,70.21
2018-06-14T00:19:08.251Z,70.24
2018-06-14T00:20:15.254Z,70.29
2018-06-14T00:21:22.278Z,70.31
2018-06-14T00:22:29.210Z,70.34
2018-06-14T00:23:36.193Z,70.47
2018-06-14T00:24:43.203Z,70.56
2018-06-14T00:25:50.058Z,70.57
2018-06-14T00:26:56.871Z,70.55
2018-06-14T00:28:03.858Z,70.46
2018-06-14T00:29:10.930Z,70.42
2018-06-14T00:30:17.907Z,70.45
2018-06-14T00:31:24.959Z,70.51
2018-06-14T00:32:31.941Z,70.47
2018-06-14T00:33:38.985Z,70.43
2018-06-14T00:34:46.043Z,70.42
2018-06-14T00:35:52.925Z,70.34
2018-06-14T00:36:59.893Z,70.39
2018-06-14T00:38:06.966Z,70.44
2018-06-14T00:39:13.943Z,70.52
2018-06-14T00:40:20.919Z,70.55
2018-06-14T00:41:27.783Z,70.54
2018-06-14T00:42:34.805Z,70.51
2018-06-14T00:43:41.752Z,70.50
2018-06-14T00:44:48.719Z,70.46
2018-06-14T00:45:55.655Z,70.44
2018-06-14T00:47:02.872Z,70.46
2018-06-14T00:48:09.819Z,70.56
2018-06-14T00:49:16.880Z,70.61
2018-06-14T00:50:23.923Z,70.63
2018-06-14T00:51:30.927Z,70.55
2018-06-14T00:52:37.786Z,70.48
2018-06-14T00:53:44.788Z,70.47
2018-06-14T00:54:51.832Z,70.48
2018-06-14T00:55:58.867Z,70.46
2018-06-14T00:57:06.011Z,70.54
2018-06-14T00:58:12.853Z,70.54
2018-06-14T00:59:19.863Z,70.48
2018-06-14T01:00:26.949Z,70.49
2018-06-14T01:01:33.972Z,70.43
2018-06-14T01:02:40.887Z,70.39
2018-06-14T01:03:47.834Z,70.50
2018-06-14T01:04:54.793Z,70.54
2018-06-14T01:06:01.782Z,70.57
2018-06-14T01:07:08.810Z,70.56
2018-06-14T01:08:15.588Z,70.64
2018-06-14T01:09:22.492Z,70.67
2018-06-14T01:10:29.514Z,70.67
2018-06-14T01:11:36.506Z,70.64
2018-06-14T01:12:43.180Z,70.62
2018-06-14T01:13:50.252Z,70.58
2018-06-14T01:14:57.107Z,70.57
2018-06-14T01:16:04.078Z,70.61
2018-06-14T01:17:11.350Z,70.62
2018-06-14T01:18:17.717Z,70.66
2018-06-14T01:19:24.489Z,70.69
2018-06-14T01:20:31.358Z,70.67
2018-06-14T01:21:38.543Z,70.67
2018-06-14T01:22:45.530Z,70.63
2018-06-14T01:23:52.462Z,70.68
2018-06-14T01:24:59.402Z,70.67
2018-06-14T01:26:06.400Z,70.65
2018-06-14T01:27:13.376Z,70.65
2018-06-14T01:28:20.369Z,70.72
2018-06-14T01:29:27.189Z,70.80
2018-06-14T01:30:34.166Z,70.82
2018-06-14T01:31:41.002Z,70.75
2018-06-14T01:32:47.871Z,70.65
2018-06-14T01:33:54.894Z,70.60
2018-06-14T01:35:01.894Z,70.60
2018-06-14T01:36:08.935Z,70.69
2018-06-14T01:37:16.312Z,70.73
2018-06-14T01:38:23.074Z,70.71
2018-06-14T01:39:30.018Z,70.63
2018-06-14T01:40:37.003Z,70.65
2018-06-14T01:41:43.983Z,70.68
2018-06-14T01:42:51.053Z,70.65
2018-06-14T01:43:58.004Z,70.60
2018-06-14T01:45:04.791Z,70.52
2018-06-14T01:46:11.647Z,70.57
2018-06-14T01:47:18.641Z,70.52
2018-06-14T01:48:25.693Z,70.50
2018-06-14T01:49:32.604Z,70.43
2018-06-14T01:50:39.619Z,70.45
2018-06-14T01:51:46.525Z,70.46
2018-06-14T01:52:53.406Z,70.43
2018-06-14T01:54:00.354Z,70.48
2018-06-14T01:55:07.403Z,70.41
2018-06-14T01:56:14.443Z,70.43
2018-06-14T01:57:21.361Z,70.41
2018-06-14T01:58:28.384Z,70.40
2018-06-14T01:59:35.219Z,70.37
2018-06-14T02:00:42.114Z,70.34
2018-06-14T02:01:48.910Z,70.31
2018-06-14T02:02:56.075Z,70.26
2018-06-14T02:04:03.057Z,70.26
2018-06-14T02:05:10.115Z,70.27
2018-06-14T02:06:16.991Z,70.37
2018-06-14T02:07:23.918Z,70.37
2018-06-14T02:08:30.720Z,70.36
2018-06-14T02:09:37.647Z,70.33
2018-06-14T02:10:44.558Z,70.39
2018-06-14T02:11:51.498Z,70.36
2018-06-14T02:12:58.508Z,70.22
2018-06-14T02:14:05.703Z,70.13
2018-06-14T02:15:12.121Z,70.10
2018-06-14T02:16:19.126Z,70.06
2018-06-14T02:17:26.034Z,70.01
2018-06-14T02:18:32.963Z,70.06
2018-06-14T02:19:39.692Z,70.09
2018-06-14T02:20:46.472Z,70.12
2018-06-14T02:21:53.626Z,70.08
2018-06-14T02:23:00.567Z,69.96
2018-06-14T02:24:07.731Z,69.91
2018-06-14T02:25:14.679Z,69.94
2018-06-14T02:26:21.695Z,69.90
2018-06-14T02:27:28.581Z,69.89
2018-06-14T02:28:35.678Z,69.88
2018-06-14T02:29:42.774Z,69.80
2018-06-14T02:30:49.737Z,69.69
2018-06-14T02:31:56.590Z,69.64
2018-06-14T02:33:03.607Z,69.63
2018-06-14T02:34:10.598Z,69.63
2018-06-14T02:35:17.641Z,69.61
2018-06-14T02:36:24.691Z,69.69
2018-06-14T02:37:31.684Z,69.70
2018-06-14T02:38:38.643Z,69.70
2018-06-14T02:39:45.668Z,69.73
2018-06-14T02:40:52.571Z,69.77
2018-06-14T02:41:59.266Z,69.74
2018-06-14T02:43:06.153Z,69.66
2018-06-14T02:44:13.040Z,69.65
2018-06-14T02:45:19.999Z,69.62
2018-06-14T02:46:27.072Z,69.53
2018-06-14T02:47:34.111Z,69.57
2018-06-14T02:48:41.066Z,69.51
2018-06-14T02:49:48.083Z,69.47
2018-06-14T02:50:55.011Z,69.43
2018-06-14T02:52:01.887Z,69.39
2018-06-14T02:53:08.978Z,69.39
2018-06-14T02:54:15.878Z,69.41
2018-06-14T02:55:22.835Z,69.42
2018-06-14T02:56:29.837Z,69.45
2018-06-14T02:57:36.829Z,69.41
2018-06-14T02:58:43.798Z,69.37
2018-06-14T02:59:50.729Z,69.30
2018-06-14T03:00:57.697Z,69.29
2018-06-14T03:02:04.479Z,69.31
2018-06-14T03:03:11.370Z,69.26
2018-06-14T03:04:18.342Z,69.14
2018-06-14T03:05:25.125Z,69.07
2018-06-14T03:06:32.046Z,69.07
2018-06-14T03:07:39.140Z,69.10
2018-06-14T03:08:46.082Z,69.11
2018-06-14T03:09:53.197Z,69.12
2018-06-14T03:11:00.157Z,69.14
2018-06-14T03:12:07.027Z,69.18
2018-06-14T03:13:13.973Z,69.18
2018-06-14T03:14:20.968Z,69.08
2018-06-14T03:15:27.976Z,69.04
2018-06-14T03:16:34.825Z,69.00
2018-06-14T03:17:41.946Z,68.99
2018-06-14T03:18:48.491Z,69.01
2018-06-14T03:19:55.543Z,69.02
2018-06-14T03:21:02.384Z,68.98
2018-06-14T03:22:09.698Z,68.95
2018-06-14T03:23:16.799Z,68.99
2018-06-14T03:24:23.727Z,69.04
2018-06-14T03:25:30.706Z,69.02
2018-06-14T03:26:37.683Z,69.02
2018-06-14T03:27:44.623Z,69.01
2018-06-14T03:28:51.626Z,68.96
2018-06-14T03:29:58.569Z,68.89
2018-06-14T03:31:05.666Z,68.88
2018-06-14T03:32:12.762Z,68.91
2018-06-14T03:33:19.840Z,68.94
2018-06-14T03:34:26.868Z,68.91
2018-06-14T03:35:33.889Z,68.87
2018-06-14T03:36:40.872Z,68.85
2018-06-14T03:37:47.907Z,68.89
2018-06-14T03:38:54.954Z,68.82
2018-06-14T03:40:02.059Z,68.77
2018-06-14T03:41:09.019Z,68.77
2018-06-14T03:42:16.003Z,68.79
2018-06-14T03:43:23.058Z,68.81
2018-06-14T03:44:30.136Z,68.83
2018-06-14T03:45:37.134Z,68.85
2018-06-14T03:46:44.130Z,68.85
2018-06-14T03:47:51.030Z,68.91
2018-06-14T03:48:58.092Z,68.98
2018-06-14T03:50:05.058Z,69.04
2018-06-14T03:51:11.920Z,69.11
2018-06-14T03:52:19.135Z,69.10
2018-06-14T03:53:25.579Z,69.12
2018-06-14T03:54:32.499Z,69.10
2018-06-14T03:55:39.811Z,69.10
2018-06-14T03:56:46.306Z,69.13
2018-06-14T03:57:53.276Z,69.14
2018-06-14T03:59:00.121Z,69.14
2018-06-14T04:00:07.135Z,69.15
2018-06-14T04:01:14.015Z,69.23
2018-06-14T04:02:20.930Z,69.30
2018-06-14T04:03:27.971Z,69.38
2018-06-14T04:04:34.821Z,69.44
2018-06-14T04:05:41.767Z,69.50
2018-06-14T04:06:48.812Z,69.59
2018-06-14T04:07:55.888Z,69.70
2018-06-14T04:09:02.989Z,69.82
2018-06-14T04:10:09.800Z,69.87
2018-06-14T04:11:16.779Z,69.93
2018-06-14T04:12:23.647Z,70.03
2018-06-14T04:13:30.657Z,70.13
2018-06-14T04:14:37.804Z,70.18
2018-06-14T04:15:44.769Z,70.27
2018-06-14T04:16:51.847Z,70.31
2018-06-14T04:17:58.936Z,70.45
2018-06-14T04:19:05.485Z,70.55
2018-06-14T04:20:12.523Z,70.64
2018-06-14T04:21:19.362Z,70.67
2018-06-14T04:22:26.404Z,70.77
2018-06-14T04:23:33.367Z,70.84
2018-06-14T04:24:40.662Z,70.91
2018-06-14T04:25:47.175Z,70.91
2018-06-14T04:26:54.143Z,70.97
2018-06-14T04:28:01.200Z,70.99
2018-06-14T04:29:08.115Z,71.00
2018-06-14T04:30:15.107Z,71.04
2018-06-14T04:31:22.102Z,71.03
2018-06-14T04:32:29.141Z,71.02
2018-06-14T04:33:36.194Z,71.11
2018-06-14T04:34:43.110Z,71.21
2018-06-14T04:35:50.238Z,71.29
2018-06-14T04:36:57.213Z,71.41
2018-06-14T04:38:04.194Z,71.46
2018-06-14T04:39:11.219Z,71.44
2018-06-14T04:40:18.350Z,71.45
2018-06-14T04:41:24.822Z,71.53
2018-06-14T04:42:31.810Z,71.58
2018-06-14T04:43:38.663Z,71.59
2018-06-14T04:44:45.731Z,71.62
2018-06-14T04:45:52.822Z,71.67
2018-06-14T04:46:59.816Z,71.70
2018-06-14T04:48:06.813Z,71.73
2018-06-14T04:49:13.871Z,71.77
2018-06-14T04:50:20.856Z,71.87
2018-06-14T04:51:27.843Z,71.90
2018-06-14T04:52:34.756Z,71.99
2018-06-14T04:53:41.870Z,72.01
2018-06-14T04:54:48.824Z,72.12
2018-06-14T04:55:55.613Z,72.13
2018-06-14T04:57:02.687Z,72.17
2018-06-14T04:58:09.508Z,72.19
2018-06-14T04:59:16.610Z,72.24
2018-06-14T05:00:23.616Z,72.30
2018-06-14T05:01:30.519Z,72.37
2018-06-14T05:02:37.492Z,72.47
2018-06-14T05:03:44.530Z,72.57
2018-06-14T05:04:51.682Z,72.67
2018-06-14T05:05:58.618Z,72.73
2018-06-14T05:07:05.565Z,72.84
2018-06-14T05:08:12.627Z,72.92
2018-06-14T05:09:19.186Z,72.94
2018-06-14T05:10:26.354Z,72.97
2018-06-14T05:11:33.294Z,73.04
2018-06-14T05:12:40.367Z,73.09
2018-06-14T05:13:47.345Z,73.10
2018-06-14T05:14:54.123Z,73.20
2018-06-14T05:16:00.939Z,73.32
2018-06-14T05:17:07.811Z,73.41
2018-06-14T05:18:14.796Z,73.48
2018-06-14T05:19:21.844Z,73.56
2018-06-14T05:20:28.900Z,73.71
2018-06-14T05:21:35.847Z,73.79
2018-06-14T05:22:42.810Z,73.89
2018-06-14T05:23:49.819Z,73.97
2018-06-14T05:24:56.881Z,74.04
2018-06-14T05:26:03.879Z,74.15
2018-06-14T05:27:10.913Z,74.22
2018-06-14T05:28:17.891Z,74.30
2018-06-14T05:29:24.874Z,74.47
2018-06-14T05:30:31.984Z,74.51
2018-06-14T05:31:38.950Z,74.66
2018-06-14T05:32:45.887Z,74.77
2018-06-14T05:33:52.916Z,74.81
2018-06-14T05:35:00.102Z,74.83
2018-06-14T05:36:06.694Z,74.86
2018-06-14T05:37:13.761Z,74.92
2018-06-14T05:38:20.778Z,74.98
2018-06-14T05:39:27.624Z,75.03
2018-06-14T05:40:34.675Z,75.02
2018-06-14T05:41:41.587Z,75.08
2018-06-14T05:42:48.619Z,75.13
2018-06-14T05:43:55.545Z,75.21
2018-06-14T05:45:02.507Z,75.24
2018-06-14T05:46:09.490Z,75.32
2018-06-14T05:47:16.348Z,75.38
2018-06-14T05:48:23.385Z,75.45
2018-06-14T05:49:30.475Z,75.47
2018-06-14T05:50:37.389Z,75.56
2018-06-14T05:51:44.385Z,75.58
2018-06-14T05:52:51.392Z,75.65
2018-06-14T05:53:58.214Z,75.65
2018-06-14T05:55:05.286Z,75.68
2018-06-14T05:56:12.222Z,75.69
2018-06-14T05:57:19.063Z,75.83
2018-06-14T05:58:26.001Z,75.85
2018-06-14T05:59:33.093Z,75.95
2018-06-14T06:00:39.772Z,76.07
2018-06-14T06:01:46.604Z,76.16
2018-06-14T06:02:53.373Z,76.21
2018-06-14T06:03:59.863Z,76.29
2018-06-14T06:05:07.141Z,76.40
2018-06-14T06:06:13.811Z,76.50
2018-06-14T06:07:20.786Z,76.55
2018-06-14T06:08:27.821Z,76.54
2018-06-14T06:09:34.886Z,76.57
2018-06-14T06:10:42.178Z,76.59
2018-06-14T06:11:48.851Z,76.66
2018-06-14T06:12:56.029Z,76.75
2018-06-14T06:14:02.573Z,76.84
2018-06-14T06:15:09.569Z,76.91
2018-06-14T06:16:16.718Z,76.99
2018-06-14T06:17:23.855Z,77.08
2018-06-14T06:18:30.825Z,77.15
2018-06-14T06:19:37.571Z,77.24
2018-06-14T06:20:44.191Z,77.30
2018-06-14T06:21:51.036Z,77.34
2018-06-14T06:22:58.056Z,77.44
2018-06-14T06:24:05.025Z,77.51
2018-06-14T06:25:12.139Z,77.63
2018-06-14T06:26:19.142Z,77.69
2018-06-14T06:27:26.035Z,77.75
2018-06-14T06:28:33.059Z,77.75
2018-06-14T06:29:40.737Z,77.81
2018-06-14T06:30:50.456Z,77.88
2018-06-14T06:31:53.771Z,77.92
2018-06-14T06:33:01.035Z,78.00
2018-06-14T06:34:08.077Z,78.13
2018-06-14T06:35:15.269Z,78.16
2018-06-14T06:36:22.285Z,78.27
2018-06-14T06:37:35.109Z,78.35
2018-06-14T06:38:36.492Z,78.51
2018-06-14T06:39:43.287Z,78.66
2018-06-14T06:40:50.984Z,78.76
2018-06-14T06:41:57.123Z,78.83
2018-06-14T06:43:05.186Z,78.91
2018-06-14T06:44:11.165Z,78.97
2018-06-14T06:45:18.178Z,79.03
2018-06-14T06:46:24.910Z,79.13
2018-06-14T06:47:31.939Z,79.17
2018-06-14T06:48:55.267Z,79.26
2018-06-14T06:50:01.807Z,79.38
2018-06-14T06:51:08.650Z,79.53
2018-06-14T06:52:15.873Z,79.62
2018-06-14T06:53:22.895Z,79.72
2018-06-14T06:54:30.696Z,79.75
2018-06-14T06:55:37.191Z,79.86
2018-06-14T06:56:45.752Z,79.98
2018-06-14T06:57:51.258Z,80.06
2018-06-14T06:58:59.508Z,80.23
2018-06-14T07:00:05.095Z,80.36
2018-06-14T07:01:13.077Z,80.45
2018-06-14T07:02:18.576Z,80.58
2018-06-14T07:03:25.306Z,80.66
2018-06-14T07:04:32.506Z,80.78
2018-06-14T07:05:39.629Z,80.87
2018-06-14T07:06:46.443Z,80.95
2018-06-14T07:07:53.450Z,81.09
2018-06-14T07:09:00.478Z,81.15
2018-06-14T07:10:07.573Z,81.27
2018-06-14T07:11:14.788Z,81.36
2018-06-14T07:12:21.900Z,81.54
2018-06-14T07:13:28.590Z,81.64
2018-06-14T07:14:35.250Z,81.74
2018-06-14T07:15:42.530Z,81.86
2018-06-14T07:16:49.334Z,82.02
2018-06-14T07:17:55.973Z,82.18
2018-06-14T07:19:02.922Z,82.38
2018-06-14T07:20:09.962Z,82.50
2018-06-14T07:21:16.637Z,82.63
2018-06-14T07:22:23.610Z,82.85
2018-06-14T07:23:30.689Z,82.92
2018-06-14T07:24:37.840Z,83.08
2018-06-14T07:25:44.340Z,83.15
2018-06-14T07:26:51.351Z,83.25
2018-06-14T07:27:58.341Z,83.39
2018-06-14T07:29:05.608Z,83.49
2018-06-14T07:30:12.527Z,83.64
2018-06-14T07:31:21.354Z,83.80
2018-06-14T07:32:26.126Z,83.94
2018-06-14T07:33:32.855Z,84.11
2018-06-14T07:34:39.563Z,84.19
2018-06-14T07:35:46.565Z,84.32
2018-06-14T07:36:53.538Z,84.40
2018-06-14T07:38:00.759Z,84.52
2018-06-14T07:39:07.360Z,84.57
2018-06-14T07:40:14.673Z,84.64
2018-06-14T07:41:22.699Z,84.70
2018-06-14T07:42:29.760Z,84.83
2018-06-14T07:43:35.003Z,84.96
2018-06-14T07:44:42.106Z,85.03
2018-06-14T07:45:49.162Z,85.14
2018-06-14T07:46:56.110Z,85.25
2018-06-14T07:48:03.361Z,85.35
2018-06-14T07:49:09.840Z,85.42
2018-06-14T07:50:16.423Z,85.53
2018-06-14T07:51:23.714Z,85.57
2018-06-14T07:52:30.623Z,85.62
2018-06-14T07:53:37.627Z,85.78
2018-06-14T07:54:44.688Z,85.88
2018-06-14T07:55:51.679Z,85.80
2018-06-14T07:56:58.603Z,85.70
2018-06-14T07:58:05.570Z,85.70
2018-06-14T07:59:12.718Z,85.73
2018-06-14T08:00:19.547Z,85.77
2018-06-14T08:01:26.495Z,85.85
2018-06-14T08:02:34.691Z,85.95
2018-06-14T08:03:40.452Z,85.99
2018-06-14T08:04:47.472Z,85.90
2018-06-14T08:05:54.307Z,85.96
2018-06-14T08:07:02.347Z,85.98
2018-06-14T08:08:07.967Z,86.05
2018-06-14T08:09:15.173Z,86.10
2018-06-14T08:10:21.828Z,86.23
2018-06-14T08:11:28.933Z,86.30
2018-06-14T08:12:35.985Z,86.25
2018-06-14T08:13:43.279Z,86.23
2018-06-14T08:14:49.943Z,86.26
2018-06-14T08:15:57.259Z,86.26
2018-06-14T08:17:04.065Z,86.31
2018-06-14T08:18:10.888Z,86.29
2018-06-14T08:19:17.830Z,86.35
2018-06-14T08:20:24.837Z,86.44
2018-06-14T08:21:31.828Z,86.40
2018-06-14T08:22:38.558Z,86.47
2018-06-14T08:23:45.600Z,86.48
2018-06-14T08:24:52.742Z,86.42
2018-06-14T08:25:59.119Z,86.50
2018-06-14T08:27:05.878Z,86.49
2018-06-14T08:28:12.793Z,86.51
2018-06-14T08:29:19.786Z,86.57
2018-06-14T08:30:26.722Z,86.60
2018-06-14T08:31:35.871Z,86.74
2018-06-14T08:32:40.528Z,86.90
2018-06-14T08:33:47.429Z,86.96
2018-06-14T08:34:54.282Z,86.94
2018-06-14T08:36:01.512Z,86.92
2018-06-14T08:37:07.893Z,86.83
2018-06-14T08:38:14.687Z,86.82
2018-06-14T08:39:21.494Z,86.94
2018-06-14T08:40:28.478Z,86.93
2018-06-14T08:41:35.354Z,86.64
2018-06-14T08:42:42.388Z,86.68
2018-06-14T08:43:49.334Z,86.42
2018-06-14T08:44:56.119Z,86.44
2018-06-14T08:46:03.061Z,86.50
2018-06-14T08:47:10.023Z,86.46
2018-06-14T08:48:17.100Z,86.22
2018-06-14T08:49:24.112Z,86.22
2018-06-14T08:50:30.926Z,86.05
2018-06-14T08:51:37.722Z,86.11
2018-06-14T08:52:44.601Z,86.17
2018-06-14T08:53:51.638Z,86.17
2018-06-14T08:54:58.342Z,86.19
2018-06-14T08:56:05.282Z,86.08
2018-06-14T08:57:12.064Z,85.82
2018-06-14T08:58:19.028Z,85.80
2018-06-14T08:59:25.987Z,85.83
2018-06-14T09:00:32.794Z,85.54
2018-06-14T09:01:39.633Z,85.55
2018-06-14T09:02:46.541Z,85.50
2018-06-14T09:03:53.618Z,85.57
2018-06-14T09:05:00.117Z,85.25
2018-06-14T09:06:06.941Z,85.25
2018-06-14T09:07:13.841Z,85.05
2018-06-14T09:08:20.665Z,85.03
2018-06-14T09:09:27.420Z,84.78
2018-06-14T09:10:34.137Z,84.64
2018-06-14T09:11:41.022Z,84.55
2018-06-14T09:12:47.842Z,84.61
2018-06-14T09:13:54.846Z,84.48
2018-06-14T09:15:01.677Z,84.16
2018-06-14T09:16:08.660Z,83.91
2018-06-14T09:17:15.543Z,83.57
2018-06-14T09:18:22.667Z,83.23
2018-06-14T09:19:29.552Z,83.06
2018-06-14T09:20:36.595Z,83.09
2018-06-14T09:21:43.390Z,83.02
2018-06-14T09:22:50.122Z,82.98
2018-06-14T09:23:57.125Z,82.50
2018-06-14T09:25:04.127Z,81.95
2018-06-14T09:26:11.237Z,81.91
2018-06-14T09:27:18.079Z,81.84
2018-06-14T09:28:24.930Z,81.45
2018-06-14T09:29:31.771Z,81.07
2018-06-14T09:30:38.501Z,80.98
2018-06-14T09:31:45.349Z,81.12
2018-06-14T09:32:52.257Z,80.85
2018-06-14T09:33:59.460Z,80.46
2018-06-14T09:35:05.717Z,80.30
2018-06-14T09:36:12.977Z,80.36
2018-06-14T09:37:24.796Z,80.52
2018-06-14T09:38:26.828Z,80.48
2018-06-14T09:39:33.613Z,80.30
2018-06-14T09:40:40.446Z,80.21
2018-06-14T09:42:54.386Z,79.30
2018-06-14T09:44:01.388Z,79.21
2018-06-14T09:45:08.362Z,79.12
2018-06-14T09:46:15.166Z,78.68
2018-06-14T09:47:21.922Z,78.45
2018-06-14T09:48:29.079Z,78.29
2018-06-14T09:49:36.054Z,78.30
2018-06-14T09:50:43.145Z,78.14
2018-06-14T09:51:49.629Z,78.31
2018-06-14T09:52:56.575Z,78.39
2018-06-14T09:54:03.502Z,78.26
2018-06-14T09:55:10.458Z,78.24
2018-06-14T09:56:17.541Z,78.16
2018-06-14T09:57:24.337Z,78.08
2018-06-14T09:58:31.215Z,77.69
2018-06-14T09:59:38.132Z,77.63
2018-06-14T10:00:44.918Z,77.62
2018-06-14T10:01:51.856Z,77.67
2018-06-14T10:02:58.739Z,77.62
2018-06-14T10:04:05.830Z,77.31
2018-06-14T10:05:12.367Z,77.10
2018-06-14T10:06:19.167Z,77.20
2018-06-14T10:07:25.992Z,76.95
2018-06-14T10:08:32.975Z,76.83
2018-06-14T10:09:39.848Z,76.66
2018-06-14T10:10:46.956Z,76.52
2018-06-14T10:11:54.018Z,76.43
2018-06-14T10:13:01.013Z,76.34
2018-06-14T10:14:08.043Z,76.43
2018-06-14T10:15:14.734Z,76.27
2018-06-14T10:16:21.693Z,76.49
2018-06-14T10:17:28.359Z,76.21
2018-06-14T10:18:35.443Z,75.83
2018-06-14T10:19:42.407Z,75.64
2018-06-14T10:20:49.366Z,75.55
2018-06-14T10:21:56.355Z,75.28
2018-06-14T10:23:03.436Z,75.32
2018-06-14T10:24:10.361Z,75.43
2018-06-14T10:25:17.320Z,75.36
2018-06-14T10:26:24.779Z,75.16
2018-06-14T10:27:30.991Z,74.97
2018-06-14T10:28:38.053Z,75.19
2018-06-14T10:29:45.024Z,75.19
2018-06-14T10:30:51.861Z,75.11
2018-06-14T10:31:58.749Z,75.18
2018-06-14T10:33:05.603Z,75.20
2018-06-14T10:34:12.974Z,75.30
2018-06-14T10:35:19.679Z,75.16
2018-06-14T10:36:26.433Z,75.13
2018-06-14T10:37:33.303Z,74.87
2018-06-14T10:38:40.210Z,74.82
2018-06-14T10:39:47.049Z,74.09
2018-06-14T10:40:54.490Z,73.92
2018-06-14T10:42:00.952Z,73.94
2018-06-14T10:43:07.976Z,73.92
2018-06-14T10:44:14.902Z,74.13
2018-06-14T10:45:21.638Z,74.06
2018-06-14T10:46:28.510Z,73.94
2018-06-14T10:47:35.485Z,73.90
2018-06-14T10:48:42.453Z,73.67
2018-06-14T10:49:48.956Z,73.78
2018-06-14T10:50:55.690Z,73.90
2018-06-14T10:52:02.652Z,73.65
2018-06-14T10:53:09.699Z,73.52
2018-06-14T10:54:16.534Z,73.14
2018-06-14T10:55:23.515Z,72.74
2018-06-14T10:56:30.386Z,72.60
2018-06-14T10:57:37.127Z,72.23
2018-06-14T10:58:43.963Z,71.94
2018-06-14T10:59:50.775Z,71.95
2018-06-14T11:00:57.822Z,71.72
2018-06-14T11:02:05.043Z,71.22
2018-06-14T11:03:12.199Z,71.18
2018-06-14T11:04:19.295Z,71.17
2018-06-14T11:05:25.968Z,71.00
2018-06-14T11:06:32.921Z,70.92
2018-06-14T11:07:39.685Z,70.87
2018-06-14T11:08:47.822Z,70.79
2018-06-14T11:09:53.189Z,70.96
2018-06-14T11:11:01.999Z,71.06
2018-06-14T11:12:06.953Z,70.95
2018-06-14T11:13:14.058Z,70.97
2018-06-14T11:14:21.091Z,70.75
2018-06-14T11:15:28.082Z,70.40
2018-06-14T11:16:35.044Z,70.37
2018-06-14T11:17:42.035Z,70.61
2018-06-14T11:18:49.001Z,70.46
2018-06-14T11:19:55.792Z,70.44
2018-06-14T11:21:02.564Z,70.29
2018-06-14T11:22:09.392Z,70.75
2018-06-14T11:23:16.531Z,70.43
2018-06-14T11:24:23.086Z,70.18
2018-06-14T11:25:30.142Z,69.98
2018-06-14T11:26:36.944Z,69.86
2018-06-14T11:27:43.689Z,69.52
2018-06-14T11:28:50.587Z,69.35
2018-06-14T11:29:57.675Z,69.20
2018-06-14T11:31:04.722Z,69.10
2018-06-14T11:32:11.591Z,69.24
2018-06-14T11:33:18.438Z,69.09
2018-06-14T11:34:25.270Z,68.85
2018-06-14T11:35:32.012Z,68.67
2018-06-14T11:36:38.930Z,68.67
2018-06-14T11:37:45.802Z,68.31
2018-06-14T11:38:52.838Z,67.91
2018-06-14T11:39:59.653Z,67.89
2018-06-14T11:41:06.650Z,68.12
2018-06-14T11:42:13.522Z,68.03
2018-06-14T11:43:20.355Z,68.10
2018-06-14T11:44:27.453Z,68.12
2018-06-14T11:45:34.101Z,68.02
2018-06-14T11:46:40.810Z,67.64
2018-06-14T11:47:48.066Z,67.55
2018-06-14T11:48:54.682Z,67.87
2018-06-14T11:50:01.640Z,67.44
2018-06-14T11:51:08.738Z,67.22
2018-06-14T11:52:15.817Z,67.21
2018-06-14T11:53:22.645Z,67.29
2018-06-14T11:54:29.902Z,67.55
2018-06-14T11:55:36.318Z,67.42
2018-06-14T11:56:43.156Z,67.37
2018-06-14T11:57:50.187Z,67.45
2018-06-14T11:58:57.094Z,67.48
2018-06-14T12:00:03.822Z,67.49
2018-06-14T12:01:10.793Z,67.18
2018-06-14T12:02:17.727Z,66.85
2018-06-14T12:03:25.654Z,66.69
2018-06-14T12:04:31.137Z,66.28
2018-06-14T12:05:38.226Z,66.54
2018-06-14T12:06:45.264Z,66.33
2018-06-14T12:07:52.066Z,66.24
2018-06-14T12:08:58.883Z,66.19
2018-06-14T12:10:05.792Z,66.07
2018-06-14T12:11:12.554Z,66.06
2018-06-14T12:12:19.434Z,65.90
2018-06-14T12:13:26.422Z,65.85
2018-06-14T12:14:33.213Z,66.11
2018-06-14T12:15:40.206Z,65.58
2018-06-14T12:16:47.130Z,65.40
2018-06-14T12:17:54.018Z,65.37
2018-06-14T12:19:00.807Z,65.42
2018-06-14T12:20:07.825Z,65.34
2018-06-14T12:21:14.641Z,65.10
2018-06-14T12:22:21.431Z,65.14
2018-06-14T12:23:28.379Z,65.53
2018-06-14T12:24:35.351Z,65.61
2018-06-14T12:25:42.365Z,65.42
2018-06-14T12:26:49.322Z,65.03
2018-06-14T12:27:56.414Z,64.81
2018-06-14T12:29:03.390Z,65.06
2018-06-14T12:30:10.229Z,65.02
2018-06-14T12:31:17.241Z,65.23
2018-06-14T12:32:23.948Z,65.54
2018-06-14T12:33:30.806Z,65.32
2018-06-14T12:34:37.646Z,65.25
2018-06-14T12:35:44.398Z,65.43
2018-06-14T12:36:51.462Z,65.06
2018-06-14T12:37:58.394Z,65.10
2018-06-14T12:39:05.299Z,65.08
2018-06-14T12:40:13.569Z,64.73
2018-06-14T12:41:18.992Z,64.29
2018-06-14T12:42:26.097Z,64.50
2018-06-14T12:43:33.038Z,64.44
2018-06-14T12:44:39.922Z,64.26
2018-06-14T12:45:46.763Z,64.27
2018-06-14T12:46:53.548Z,64.22
2018-06-14T12:48:00.384Z,64.26
2018-06-14T12:49:07.274Z,64.48
2018-06-14T12:50:13.954Z,64.61
2018-06-14T12:51:20.992Z,64.46
2018-06-14T12:52:27.623Z,64.06
2018-06-14T12:53:34.655Z,63.98
2018-06-14T12:54:41.342Z,64.03
2018-06-14T12:55:48.208Z,63.71
2018-06-14T12:56:55.170Z,63.61
2018-06-14T12:58:02.074Z,63.98
2018-06-14T12:59:09.010Z,63.95
2018-06-14T13:00:16.329Z,63.69
2018-06-14T13:01:22.870Z,63.70
2018-06-14T13:02:29.737Z,63.26
2018-06-14T13:03:36.867Z,63.28
2018-06-14T13:04:43.541Z,63.38
2018-06-14T13:05:50.447Z,63.14
2018-06-14T13:06:57.280Z,62.91
2018-06-14T13:08:04.142Z,63.04
2018-06-14T13:09:11.298Z,63.31
2018-06-14T13:10:17.822Z,63.29
2018-06-14T13:11:24.853Z,63.26
2018-06-14T13:12:31.835Z,63.43
2018-06-14T13:13:38.730Z,63.53
2018-06-14T13:14:45.637Z,63.66
2018-06-14T13:15:52.549Z,63.75
2018-06-14T13:16:59.466Z,63.84
2018-06-14T13:18:06.402Z,63.58
2018-06-14T13:19:13.186Z,63.96
2018-06-14T13:20:20.015Z,63.92
2018-06-14T13:21:27.009Z,64.04
2018-06-14T13:22:33.797Z,63.85
2018-06-14T13:23:40.581Z,64.09
2018-06-14T13:24:48.585Z,63.89
2018-06-14T13:25:54.332Z,63.31
2018-06-14T13:27:01.135Z,63.50
2018-06-14T13:28:08.015Z,63.39
2018-06-14T13:29:15.024Z,63.44
2018-06-14T13:30:21.718Z,63.23
2018-06-14T13:31:28.462Z,63.35
2018-06-14T13:32:35.377Z,63.50
2018-06-14T13:33:42.167Z,63.61
2018-06-14T13:34:48.909Z,63.53
2018-06-14T13:35:55.811Z,63.87
2018-06-14T13:37:02.766Z,63.89
2018-06-14T13:38:09.543Z,63.92
2018-06-14T13:39:16.327Z,64.20
2018-06-14T13:40:23.101Z,63.93
2018-06-14T13:41:30.167Z,64.08
2018-06-14T13:42:37.106Z,64.19
2018-06-14T13:43:44.001Z,64.21
2018-06-14T13:44:51.104Z,63.90
2018-06-14T13:45:57.991Z,63.89
2018-06-14T13:47:04.719Z,63.80
2018-06-14T13:48:12.039Z,63.77
2018-06-14T13:49:18.441Z,63.88
2018-06-14T13:50:25.191Z,63.73
2018-06-14T13:51:32.011Z,63.77
2018-06-14T13:52:39.050Z,64.03
2018-06-14T13:53:45.822Z,64.32
2018-06-14T13:54:52.680Z,64.21
2018-06-14T13:55:59.534Z,63.89
2018-06-14T13:57:06.506Z,63.67
2018-06-14T13:58:13.310Z,63.85
2018-06-14T13:59:20.063Z,63.86
2018-06-14T14:00:26.743Z,63.71
2018-06-14T14:01:33.710Z,63.90
2018-06-14T14:02:40.755Z,63.84
2018-06-14T14:03:47.927Z,63.74
2018-06-14T14:04:54.830Z,63.82
2018-06-14T14:06:02.956Z,63.62
2018-06-14T14:07:08.531Z,63.73
2018-06-14T14:08:15.327Z,63.40
2018-06-14T14:09:22.134Z,63.21
2018-06-14T14:10:28.995Z,63.34
2018-06-14T14:11:36.050Z,63.60
2018-06-14T14:12:43.582Z,63.55
2018-06-14T14:13:50.991Z,63.55
2018-06-14T14:14:57.018Z,63.10
2018-06-14T14:16:03.893Z,63.10
2018-06-14T14:17:10.963Z,62.83
2018-06-14T14:18:17.926Z,62.74
2018-06-14T14:19:25.012Z,62.81
2018-06-14T14:20:31.671Z,63.05
2018-06-14T14:21:40.514Z,62.94
2018-06-14T14:22:45.501Z,62.88